KBTL/BTL METAR and TAF weather

Enter ICAO airport designator
Station Type Date Time Source
KBTL METAR 2021/04/13 05:53 UTC NOAA

KBTL 130553Z AUTO 26004KT 10SM CLR 07/02 A2999 RMK AO2 SLP157 T00720017 10144 20067 51020


Station Type Date Time Source
KBTL Decoded METAR 2021/04/13 05:53 UTC NOAA

W.K.KELLOGG REGIONAL AIRPORT, MI, United States (KBTL) 42-18N 085-15W 290M
Apr 13, 2021 - 01:53 AM EDT / 2021.04.13 0553 UTC
Wind: from the W (260 degrees) at 5 MPH (4 KT):0
Visibility: 10 mile(s):0
Sky conditions: clear
Temperature: 45.0 F (7.2 C)
Dew Point: 35.1 F (1.7 C)
Relative Humidity: 68%
Pressure (altimeter): 29.99 in. Hg (1015 hPa)
Pressure tendency: 0.06 inches (2.0 hPa) higher than three hours ago
ob: KBTL 130553Z AUTO 26004KT 10SM CLR 07/02 A2999 RMK AO2 SLP157 T00720017 10144 20067 51020
cycle: 6

Station Type Date Time Source
KBTL TAF 2021/04/13 06:22 UTC NOAA

TAF KBTL 130520Z 1306/1406 25005KT P6SM SKC
FM131600 25012G22KT P6SM SCT050
FM140000 30006KT P6SM BKN050

Example: see airport list